sensor_id;sensor_type;location;lat;lon;timestamp;temperature;humidity
17092;DHT22;8661;45.700;4.880;2022-09-13T00:00:50;22.40;99.90
17092;DHT22;8661;45.700;4.880;2022-09-13T00:03:19;22.40;99.90
17092;DHT22;8661;45.700;4.880;2022-09-13T00:05:47;22.40;99.90
17092;DHT22;8661;45.700;4.880;2022-09-13T00:08:18;22.40;99.90
17092;DHT22;8661;45.700;4.880;2022-09-13T00:10:46;22.40;99.90
17092;DHT22;8661;45.700;4.880;2022-09-13T00:13:17;22.40;99.90
17092;DHT22;8661;45.700;4.880;2022-09-13T00:15:47;22.40;99.90
17092;DHT22;8661;45.700;4.880;2022-09-13T00:18:16;22.40;99.90
17092;DHT22;8661;45.700;4.880;2022-09-13T00:20:44;22.50;99.90
17092;DHT22;8661;45.700;4.880;2022-09-13T00:23:12;22.50;99.90
17092;DHT22;8661;45.700;4.880;2022-09-13T00:25:41;22.50;99.90
17092;DHT22;8661;45.700;4.880;2022-09-13T00:28:09;22.50;99.90
17092;DHT22;8661;45.700;4.880;2022-09-13T00:30:37;22.50;99.90
17092;DHT22;8661;45.700;4.880;2022-09-13T00:33:05;22.50;99.90
17092;DHT22;8661;45.700;4.880;2022-09-13T00:35:34;22.50;99.90
17092;DHT22;8661;45.700;4.880;2022-09-13T00:38:02;22.40;99.90
17092;DHT22;8661;45.700;4.880;2022-09-13T00:40:29;22.40;99.90
17092;DHT22;8661;45.700;4.880;2022-09-13T00:42:58;22.40;99.90
17092;DHT22;8661;45.700;4.880;2022-09-13T00:45:26;22.40;99.90
17092;DHT22;8661;45.700;4.880;2022-09-13T00:47:56;22.40;99.90
17092;DHT22;8661;45.700;4.880;2022-09-13T00:50:28;22.40;99.90
17092;DHT22;8661;45.700;4.880;2022-09-13T00:53:01;22.30;99.90
17092;DHT22;8661;45.700;4.880;2022-09-13T00:55:36;22.20;99.90
17092;DHT22;8661;45.700;4.880;2022-09-13T00:58:10;22.10;99.90
17092;DHT22;8661;45.700;4.880;2022-09-13T01:00:39;22.00;99.90
17092;DHT22;8661;45.700;4.880;2022-09-13T01:03:09;22.00;99.90
17092;DHT22;8661;45.700;4.880;2022-09-13T01:05:40;21.90;99.90
17092;DHT22;8661;45.700;4.880;2022-09-13T01:08:09;21.80;99.90
17092;DHT22;8661;45.700;4.880;2022-09-13T01:10:40;21.80;99.90
17092;DHT22;8661;45.700;4.880;2022-09-13T01:13:12;21.70;99.90
17092;DHT22;8661;45.700;4.880;2022-09-13T01:15:42;21.70;99.90
17092;DHT22;8661;45.700;4.880;2022-09-13T01:18:10;21.60;99.90
17092;DHT22;8661;45.700;4.880;2022-09-13T01:20:53;21.60;99.90
17092;DHT22;8661;45.700;4.880;2022-09-13T01:23:43;21.50;99.90
17092;DHT22;8661;45.700;4.880;2022-09-13T01:26:45;21.40;99.90
17092;DHT22;8661;45.700;4.880;2022-09-13T01:29:38;21.40;99.90
17092;DHT22;8661;45.700;4.880;2022-09-13T01:32:15;21.40;99.90
17092;DHT22;8661;45.700;4.880;2022-09-13T01:34:51;21.30;99.90
17092;DHT22;8661;45.700;4.880;2022-09-13T01:37:35;21.30;99.90
17092;DHT22;8661;45.700;4.880;2022-09-13T01:40:13;21.30;99.90
17092;DHT22;8661;45.700;4.880;2022-09-13T01:42:53;21.20;99.90
17092;DHT22;8661;45.700;4.880;2022-09-13T01:45:30;21.20;99.90
17092;DHT22;8661;45.700;4.880;2022-09-13T01:48:11;21.10;99.90
17092;DHT22;8661;45.700;4.880;2022-09-13T01:50:45;21.10;99.90
17092;DHT22;8661;45.700;4.880;2022-09-13T01:53:21;21.20;99.90
17092;DHT22;8661;45.700;4.880;2022-09-13T01:56:02;21.20;99.90
17092;DHT22;8661;45.700;4.880;2022-09-13T01:58:38;21.30;99.90
17092;DHT22;8661;45.700;4.880;2022-09-13T02:01:12;21.40;99.90
17092;DHT22;8661;45.700;4.880;2022-09-13T02:03:50;21.40;99.90
17092;DHT22;8661;45.700;4.880;2022-09-13T02:06:22;21.60;99.90
17092;DHT22;8661;45.700;4.880;2022-09-13T02:08:53;21.60;99.90
17092;DHT22;8661;45.700;4.880;2022-09-13T02:11:21;21.70;99.90
17092;DHT22;8661;45.700;4.880;2022-09-13T02:13:53;21.80;99.90
17092;DHT22;8661;45.700;4.880;2022-09-13T02:16:27;21.80;99.90
17092;DHT22;8661;45.700;4.880;2022-09-13T02:19:00;21.80;99.90
17092;DHT22;8661;45.700;4.880;2022-09-13T02:21:30;21.80;99.90
17092;DHT22;8661;45.700;4.880;2022-09-13T02:24:01;21.90;99.90
17092;DHT22;8661;45.700;4.880;2022-09-13T02:26:30;22.00;99.90
17092;DHT22;8661;45.700;4.880;2022-09-13T02:28:59;22.00;99.90
17092;DHT22;8661;45.700;4.880;2022-09-13T02:31:32;22.00;99.90
17092;DHT22;8661;45.700;4.880;2022-09-13T02:34:04;22.00;99.90
17092;DHT22;8661;45.700;4.880;2022-09-13T02:36:35;22.00;99.90
17092;DHT22;8661;45.700;4.880;2022-09-13T02:39:08;21.90;99.90
17092;DHT22;8661;45.700;4.880;2022-09-13T02:41:42;21.90;99.90
17092;DHT22;8661;45.700;4.880;2022-09-13T02:44:14;21.80;99.90
17092;DHT22;8661;45.700;4.880;2022-09-13T02:46:59;21.80;99.90
17092;DHT22;8661;45.700;4.880;2022-09-13T02:49:37;21.80;99.90
17092;DHT22;8661;45.700;4.880;2022-09-13T02:52:15;21.70;99.90
17092;DHT22;8661;45.700;4.880;2022-09-13T02:54:52;21.70;99.90
17092;DHT22;8661;45.700;4.880;2022-09-13T02:57:28;21.70;99.90
17092;DHT22;8661;45.700;4.880;2022-09-13T02:59:57;21.60;99.90
17092;DHT22;8661;45.700;4.880;2022-09-13T03:02:26;21.50;99.90
17092;DHT22;8661;45.700;4.880;2022-09-13T03:04:55;21.50;99.90
17092;DHT22;8661;45.700;4.880;2022-09-13T03:07:23;21.50;99.90
17092;DHT22;8661;45.700;4.880;2022-09-13T03:09:52;21.50;99.90
17092;DHT22;8661;45.700;4.880;2022-09-13T03:12:32;21.40;99.90
17092;DHT22;8661;45.700;4.880;2022-09-13T03:15:05;21.40;99.90
17092;DHT22;8661;45.700;4.880;2022-09-13T03:17:44;21.40;99.90
17092;DHT22;8661;45.700;4.880;2022-09-13T03:20:17;21.40;99.90
17092;DHT22;8661;45.700;4.880;2022-09-13T03:28:45;21.30;99.90
17092;DHT22;8661;45.700;4.880;2022-09-13T03:31:19;21.30;99.90
17092;DHT22;8661;45.700;4.880;2022-09-13T03:33:51;21.40;99.90
17092;DHT22;8661;45.700;4.880;2022-09-13T03:36:28;21.40;99.90
17092;DHT22;8661;45.700;4.880;2022-09-13T03:39:02;21.40;99.90
17092;DHT22;8661;45.700;4.880;2022-09-13T03:41:37;21.40;99.90
17092;DHT22;8661;45.700;4.880;2022-09-13T03:44:08;21.40;99.90
17092;DHT22;8661;45.700;4.880;2022-09-13T03:46:38;21.50;99.90
17092;DHT22;8661;45.700;4.880;2022-09-13T03:49:09;21.40;99.90
17092;DHT22;8661;45.700;4.880;2022-09-13T03:51:40;21.40;99.90
17092;DHT22;8661;45.700;4.880;2022-09-13T03:54:10;21.40;99.90
17092;DHT22;8661;45.700;4.880;2022-09-13T03:56:40;21.40;99.90
17092;DHT22;8661;45.700;4.880;2022-09-13T03:59:07;21.40;99.90
17092;DHT22;8661;45.700;4.880;2022-09-13T04:01:35;21.40;99.90
17092;DHT22;8661;45.700;4.880;2022-09-13T04:04:02;21.40;99.90
17092;DHT22;8661;45.700;4.880;2022-09-13T04:06:29;21.50;99.90
17092;DHT22;8661;45.700;4.880;2022-09-13T04:08:58;21.50;99.90
17092;DHT22;8661;45.700;4.880;2022-09-13T04:11:26;21.50;99.90
17092;DHT22;8661;45.700;4.880;2022-09-13T04:13:56;21.50;99.90
17092;DHT22;8661;45.700;4.880;2022-09-13T04:16:24;21.50;99.90
17092;DHT22;8661;45.700;4.880;2022-09-13T04:18:51;21.60;99.90
17092;DHT22;8661;45.700;4.880;2022-09-13T04:21:18;21.70;99.90
17092;DHT22;8661;45.700;4.880;2022-09-13T04:23:49;21.70;99.90
17092;DHT22;8661;45.700;4.880;2022-09-13T04:26:19;21.80;99.90
17092;DHT22;8661;45.700;4.880;2022-09-13T04:28:46;21.80;99.90
17092;DHT22;8661;45.700;4.880;2022-09-13T04:31:12;21.80;99.90
17092;DHT22;8661;45.700;4.880;2022-09-13T04:33:39;21.80;99.90
17092;DHT22;8661;45.700;4.880;2022-09-13T04:36:07;21.80;99.90
17092;DHT22;8661;45.700;4.880;2022-09-13T04:38:34;21.80;99.90
17092;DHT22;8661;45.700;4.880;2022-09-13T04:41:02;21.80;99.90
17092;DHT22;8661;45.700;4.880;2022-09-13T04:43:31;21.80;99.90
17092;DHT22;8661;45.700;4.880;2022-09-13T04:45:59;21.80;99.90
17092;DHT22;8661;45.700;4.880;2022-09-13T04:48:26;21.70;99.90
17092;DHT22;8661;45.700;4.880;2022-09-13T04:50:53;21.70;99.90
17092;DHT22;8661;45.700;4.880;2022-09-13T04:53:26;21.70;99.90
17092;DHT22;8661;45.700;4.880;2022-09-13T04:55:59;21.70;99.90
17092;DHT22;8661;45.700;4.880;2022-09-13T04:58:26;21.60;99.90
17092;DHT22;8661;45.700;4.880;2022-09-13T05:01:00;21.60;99.90
17092;DHT22;8661;45.700;4.880;2022-09-13T05:03:29;21.60;99.90
17092;DHT22;8661;45.700;4.880;2022-09-13T05:06:01;21.60;99.90
17092;DHT22;8661;45.700;4.880;2022-09-13T05:08:29;21.50;99.90
17092;DHT22;8661;45.700;4.880;2022-09-13T05:10:56;21.50;99.90
17092;DHT22;8661;45.700;4.880;2022-09-13T05:13:24;21.50;99.90
17092;DHT22;8661;45.700;4.880;2022-09-13T05:16:01;21.50;99.90
17092;DHT22;8661;45.700;4.880;2022-09-13T05:20:03;21.50;99.90
17092;DHT22;8661;45.700;4.880;2022-09-13T05:22:30;21.50;99.90
17092;DHT22;8661;45.700;4.880;2022-09-13T05:24:57;21.60;99.90
17092;DHT22;8661;45.700;4.880;2022-09-13T05:27:24;21.60;99.90
17092;DHT22;8661;45.700;4.880;2022-09-13T05:29:52;21.60;99.90
17092;DHT22;8661;45.700;4.880;2022-09-13T05:32:18;21.60;99.90
17092;DHT22;8661;45.700;4.880;2022-09-13T05:34:45;21.60;99.90
17092;DHT22;8661;45.700;4.880;2022-09-13T05:37:17;21.60;99.90
17092;DHT22;8661;45.700;4.880;2022-09-13T05:39:44;21.70;99.90
17092;DHT22;8661;45.700;4.880;2022-09-13T05:42:12;21.60;99.90
17092;DHT22;8661;45.700;4.880;2022-09-13T05:44:40;21.70;99.90
17092;DHT22;8661;45.700;4.880;2022-09-13T05:47:07;21.70;99.90
17092;DHT22;8661;45.700;4.880;2022-09-13T05:49:35;21.70;99.90
17092;DHT22;8661;45.700;4.880;2022-09-13T05:52:19;21.70;99.90
17092;DHT22;8661;45.700;4.880;2022-09-13T05:54:46;21.70;99.90
17092;DHT22;8661;45.700;4.880;2022-09-13T05:57:14;21.70;99.90
17092;DHT22;8661;45.700;4.880;2022-09-13T05:59:41;21.70;99.90
17092;DHT22;8661;45.700;4.880;2022-09-13T06:02:09;21.70;99.90
17092;DHT22;8661;45.700;4.880;2022-09-13T06:04:36;21.70;99.90
17092;DHT22;8661;45.700;4.880;2022-09-13T06:07:03;21.80;99.90
17092;DHT22;8661;45.700;4.880;2022-09-13T06:09:32;21.90;99.90
17092;DHT22;8661;45.700;4.880;2022-09-13T06:11:59;22.00;99.90
17092;DHT22;8661;45.700;4.880;2022-09-13T06:14:27;22.00;99.90
17092;DHT22;8661;45.700;4.880;2022-09-13T06:16:55;22.00;99.90
17092;DHT22;8661;45.700;4.880;2022-09-13T06:19:23;22.00;99.90
17092;DHT22;8661;45.700;4.880;2022-09-13T06:21:50;22.10;99.90
17092;DHT22;8661;45.700;4.880;2022-09-13T06:24:17;22.10;99.90
17092;DHT22;8661;45.700;4.880;2022-09-13T06:26:45;22.20;99.90
17092;DHT22;8661;45.700;4.880;2022-09-13T06:29:12;22.30;99.90
17092;DHT22;8661;45.700;4.880;2022-09-13T06:31:39;22.30;99.90
17092;DHT22;8661;45.700;4.880;2022-09-13T06:34:10;22.40;99.90
17092;DHT22;8661;45.700;4.880;2022-09-13T06:36:38;22.40;99.90
17092;DHT22;8661;45.700;4.880;2022-09-13T06:39:05;22.40;99.90
17092;DHT22;8661;45.700;4.880;2022-09-13T06:41:33;22.50;99.90
17092;DHT22;8661;45.700;4.880;2022-09-13T06:44:02;22.50;99.90
17092;DHT22;8661;45.700;4.880;2022-09-13T06:46:30;22.60;99.90
17092;DHT22;8661;45.700;4.880;2022-09-13T06:49:02;22.60;99.90
17092;DHT22;8661;45.700;4.880;2022-09-13T06:51:30;22.70;99.90
17092;DHT22;8661;45.700;4.880;2022-09-13T06:53:57;23.00;99.90
17092;DHT22;8661;45.700;4.880;2022-09-13T06:56:26;23.20;99.90
17092;DHT22;8661;45.700;4.880;2022-09-13T06:58:55;23.60;99.90
17092;DHT22;8661;45.700;4.880;2022-09-13T07:01:25;23.80;99.90
17092;DHT22;8661;45.700;4.880;2022-09-13T07:03:53;24.00;99.90
17092;DHT22;8661;45.700;4.880;2022-09-13T07:06:23;24.10;99.90
17092;DHT22;8661;45.700;4.880;2022-09-13T07:08:52;24.30;99.90
17092;DHT22;8661;45.700;4.880;2022-09-13T07:11:21;24.60;99.90
17092;DHT22;8661;45.700;4.880;2022-09-13T07:13:49;24.90;99.90
17092;DHT22;8661;45.700;4.880;2022-09-13T07:16:16;25.10;99.90
17092;DHT22;8661;45.700;4.880;2022-09-13T07:18:50;25.30;99.90
17092;DHT22;8661;45.700;4.880;2022-09-13T07:21:17;25.40;99.90
17092;DHT22;8661;45.700;4.880;2022-09-13T07:23:44;25.50;99.90
17092;DHT22;8661;45.700;4.880;2022-09-13T07:26:11;25.80;99.90
17092;DHT22;8661;45.700;4.880;2022-09-13T07:28:39;26.10;99.90
17092;DHT22;8661;45.700;4.880;2022-09-13T07:31:07;26.30;99.90
17092;DHT22;8661;45.700;4.880;2022-09-13T07:33:35;26.40;99.90
17092;DHT22;8661;45.700;4.880;2022-09-13T07:36:04;26.70;99.90
17092;DHT22;8661;45.700;4.880;2022-09-13T07:38:33;27.00;99.90
17092;DHT22;8661;45.700;4.880;2022-09-13T07:41:00;26.80;99.90
17092;DHT22;8661;45.700;4.880;2022-09-13T07:43:28;26.80;99.90
17092;DHT22;8661;45.700;4.880;2022-09-13T07:45:58;26.50;99.90
17092;DHT22;8661;45.700;4.880;2022-09-13T07:48:27;26.30;99.90
17092;DHT22;8661;45.700;4.880;2022-09-13T07:51:03;26.20;99.90
17092;DHT22;8661;45.700;4.880;2022-09-13T07:53:32;26.20;99.90
17092;DHT22;8661;45.700;4.880;2022-09-13T07:56:01;26.20;99.90
17092;DHT22;8661;45.700;4.880;2022-09-13T07:58:28;26.20;99.90
17092;DHT22;8661;45.700;4.880;2022-09-13T08:00:59;26.20;99.90
17092;DHT22;8661;45.700;4.880;2022-09-13T08:03:29;26.20;99.90
17092;DHT22;8661;45.700;4.880;2022-09-13T08:05:56;26.10;99.90
17092;DHT22;8661;45.700;4.880;2022-09-13T08:08:24;26.00;99.90
17092;DHT22;8661;45.700;4.880;2022-09-13T08:10:51;26.00;99.90
17092;DHT22;8661;45.700;4.880;2022-09-13T08:13:18;25.90;99.90
17092;DHT22;8661;45.700;4.880;2022-09-13T08:15:45;25.90;99.90
17092;DHT22;8661;45.700;4.880;2022-09-13T08:18:13;25.90;99.90
17092;DHT22;8661;45.700;4.880;2022-09-13T08:20:39;25.90;99.90
17092;DHT22;8661;45.700;4.880;2022-09-13T08:23:07;25.90;99.90
17092;DHT22;8661;45.700;4.880;2022-09-13T08:25:35;25.80;99.90
17092;DHT22;8661;45.700;4.880;2022-09-13T08:28:05;25.90;99.90
17092;DHT22;8661;45.700;4.880;2022-09-13T08:30:33;26.00;99.90
17092;DHT22;8661;45.700;4.880;2022-09-13T08:33:01;26.20;99.90
17092;DHT22;8661;45.700;4.880;2022-09-13T08:35:29;26.40;99.90
17092;DHT22;8661;45.700;4.880;2022-09-13T08:37:56;26.60;99.90
17092;DHT22;8661;45.700;4.880;2022-09-13T08:40:24;27.00;99.90
17092;DHT22;8661;45.700;4.880;2022-09-13T08:43:01;27.20;99.90
17092;DHT22;8661;45.700;4.880;2022-09-13T08:45:32;27.50;99.90
17092;DHT22;8661;45.700;4.880;2022-09-13T08:48:02;27.70;99.90
17092;DHT22;8661;45.700;4.880;2022-09-13T08:50:33;27.70;99.90
17092;DHT22;8661;45.700;4.880;2022-09-13T08:53:14;27.50;99.90
17092;DHT22;8661;45.700;4.880;2022-09-13T08:55:50;27.40;99.90
17092;DHT22;8661;45.700;4.880;2022-09-13T08:58:32;27.40;99.90
17092;DHT22;8661;45.700;4.880;2022-09-13T09:01:06;27.30;99.90
17092;DHT22;8661;45.700;4.880;2022-09-13T09:03:40;27.20;99.90
17092;DHT22;8661;45.700;4.880;2022-09-13T09:06:12;27.30;99.90
17092;DHT22;8661;45.700;4.880;2022-09-13T09:08:43;27.50;99.90
17092;DHT22;8661;45.700;4.880;2022-09-13T09:11:20;27.90;99.90
17092;DHT22;8661;45.700;4.880;2022-09-13T09:13:53;28.20;99.90
17092;DHT22;8661;45.700;4.880;2022-09-13T09:16:29;28.50;99.90
17092;DHT22;8661;45.700;4.880;2022-09-13T09:19:07;29.00;99.90
17092;DHT22;8661;45.700;4.880;2022-09-13T09:21:37;29.40;99.90
17092;DHT22;8661;45.700;4.880;2022-09-13T09:24:05;29.50;99.90
17092;DHT22;8661;45.700;4.880;2022-09-13T09:26:32;29.50;99.90
17092;DHT22;8661;45.700;4.880;2022-09-13T09:29:07;29.50;99.90
17092;DHT22;8661;45.700;4.880;2022-09-13T09:31:43;29.50;99.90
17092;DHT22;8661;45.700;4.880;2022-09-13T09:34:17;29.60;99.90
17092;DHT22;8661;45.700;4.880;2022-09-13T09:36:53;30.20;99.90
17092;DHT22;8661;45.700;4.880;2022-09-13T09:39:30;31.20;99.50
17092;DHT22;8661;45.700;4.880;2022-09-13T09:42:04;31.20;97.30
17092;DHT22;8661;45.700;4.880;2022-09-13T09:44:33;30.90;97.00
17092;DHT22;8661;45.700;4.880;2022-09-13T09:47:03;31.00;97.10
17092;DHT22;8661;45.700;4.880;2022-09-13T09:49:36;31.20;96.30
17092;DHT22;8661;45.700;4.880;2022-09-13T09:52:24;31.40;95.50
17092;DHT22;8661;45.700;4.880;2022-09-13T09:54:58;31.30;95.10
17092;DHT22;8661;45.700;4.880;2022-09-13T09:57:50;31.40;94.60
17092;DHT22;8661;45.700;4.880;2022-09-13T10:00:20;31.10;94.20
17092;DHT22;8661;45.700;4.880;2022-09-13T10:02:50;30.90;94.80
17092;DHT22;8661;45.700;4.880;2022-09-13T10:05:19;30.90;95.20
17092;DHT22;8661;45.700;4.880;2022-09-13T10:07:55;30.80;94.90
17092;DHT22;8661;45.700;4.880;2022-09-13T10:10:25;30.90;95.10
17092;DHT22;8661;45.700;4.880;2022-09-13T10:12:55;30.70;94.70
17092;DHT22;8661;45.700;4.880;2022-09-13T10:15:26;30.50;95.00
17092;DHT22;8661;45.700;4.880;2022-09-13T10:18:05;30.30;95.40
17092;DHT22;8661;45.700;4.880;2022-09-13T10:20:38;30.00;96.00
17092;DHT22;8661;45.700;4.880;2022-09-13T10:23:25;30.00;96.20
17092;DHT22;8661;45.700;4.880;2022-09-13T10:26:01;29.80;96.40
17092;DHT22;8661;45.700;4.880;2022-09-13T10:28:30;29.70;96.30
17092;DHT22;8661;45.700;4.880;2022-09-13T10:31:02;29.90;96.30
17092;DHT22;8661;45.700;4.880;2022-09-13T10:33:32;30.40;95.60
17092;DHT22;8661;45.700;4.880;2022-09-13T10:36:01;30.50;94.80
17092;DHT22;8661;45.700;4.880;2022-09-13T10:38:31;30.60;94.60
17092;DHT22;8661;45.700;4.880;2022-09-13T10:41:01;30.80;94.40
17092;DHT22;8661;45.700;4.880;2022-09-13T10:43:30;30.90;93.90
17092;DHT22;8661;45.700;4.880;2022-09-13T10:46:02;31.10;93.60
17092;DHT22;8661;45.700;4.880;2022-09-13T10:48:30;31.50;93.10
17092;DHT22;8661;45.700;4.880;2022-09-13T10:51:19;31.50;92.40
17092;DHT22;8661;45.700;4.880;2022-09-13T10:53:47;31.40;92.30
17092;DHT22;8661;45.700;4.880;2022-09-13T10:56:20;31.20;92.70
17092;DHT22;8661;45.700;4.880;2022-09-13T10:58:47;31.20;92.40
17092;DHT22;8661;45.700;4.880;2022-09-13T11:01:37;30.80;93.00
17092;DHT22;8661;45.700;4.880;2022-09-13T11:10:12;30.40;93.80
17092;DHT22;8661;45.700;4.880;2022-09-13T11:12:51;30.30;94.00
17092;DHT22;8661;45.700;4.880;2022-09-13T11:15:32;30.40;94.00
17092;DHT22;8661;45.700;4.880;2022-09-13T11:18:26;30.90;93.30
17092;DHT22;8661;45.700;4.880;2022-09-13T11:21:04;31.20;92.80
17092;DHT22;8661;45.700;4.880;2022-09-13T11:24:05;31.40;92.30
17092;DHT22;8661;45.700;4.880;2022-09-13T11:26:45;31.50;91.60
17092;DHT22;8661;45.700;4.880;2022-09-13T11:29:25;32.00;91.00
17092;DHT22;8661;45.700;4.880;2022-09-13T11:32:00;32.00;90.80
17092;DHT22;8661;45.700;4.880;2022-09-13T11:34:37;32.10;90.70
17092;DHT22;8661;45.700;4.880;2022-09-13T11:37:20;31.60;90.80
17092;DHT22;8661;45.700;4.880;2022-09-13T11:39:58;31.30;91.30
17092;DHT22;8661;45.700;4.880;2022-09-13T11:42:39;31.50;91.30
17092;DHT22;8661;45.700;4.880;2022-09-13T11:45:17;31.50;91.00
17092;DHT22;8661;45.700;4.880;2022-09-13T11:47:58;31.40;91.20
17092;DHT22;8661;45.700;4.880;2022-09-13T11:50:35;31.50;91.20
17092;DHT22;8661;45.700;4.880;2022-09-13T11:53:20;31.40;91.20
17092;DHT22;8661;45.700;4.880;2022-09-13T11:55:54;31.50;91.10
17092;DHT22;8661;45.700;4.880;2022-09-13T11:58:26;31.50;90.80
17092;DHT22;8661;45.700;4.880;2022-09-13T12:00:59;31.40;91.20
17092;DHT22;8661;45.700;4.880;2022-09-13T12:03:36;31.70;91.10
17092;DHT22;8661;45.700;4.880;2022-09-13T12:06:12;31.80;90.50
17092;DHT22;8661;45.700;4.880;2022-09-13T12:08:44;31.80;90.30
17092;DHT22;8661;45.700;4.880;2022-09-13T12:11:18;31.90;90.40
17092;DHT22;8661;45.700;4.880;2022-09-13T12:13:51;31.90;90.30
17092;DHT22;8661;45.700;4.880;2022-09-13T12:16:25;31.70;90.20
17092;DHT22;8661;45.700;4.880;2022-09-13T12:18:58;31.70;90.30
17092;DHT22;8661;45.700;4.880;2022-09-13T12:21:29;31.70;90.50
17092;DHT22;8661;45.700;4.880;2022-09-13T12:24:02;31.70;90.40
17092;DHT22;8661;45.700;4.880;2022-09-13T12:26:36;31.80;90.20
17092;DHT22;8661;45.700;4.880;2022-09-13T12:29:10;31.80;90.00
17092;DHT22;8661;45.700;4.880;2022-09-13T12:31:39;31.90;89.70
17092;DHT22;8661;45.700;4.880;2022-09-13T12:34:09;32.00;89.30
17092;DHT22;8661;45.700;4.880;2022-09-13T12:37:03;32.20;88.20
17092;DHT22;8661;45.700;4.880;2022-09-13T12:39:44;32.50;87.60
17092;DHT22;8661;45.700;4.880;2022-09-13T12:42:46;32.70;86.10
17092;DHT22;8661;45.700;4.880;2022-09-13T12:45:25;32.60;85.80
17092;DHT22;8661;45.700;4.880;2022-09-13T12:48:16;32.80;86.10
17092;DHT22;8661;45.700;4.880;2022-09-13T12:51:00;33.00;84.20
17092;DHT22;8661;45.700;4.880;2022-09-13T12:56:49;32.00;87.90
17092;DHT22;8661;45.700;4.880;2022-09-13T12:59:28;31.90;87.20
17092;DHT22;8661;45.700;4.880;2022-09-13T13:02:01;31.40;88.00
17092;DHT22;8661;45.700;4.880;2022-09-13T13:04:32;31.00;89.50
17092;DHT22;8661;45.700;4.880;2022-09-13T13:07:01;30.60;90.30
17092;DHT22;8661;45.700;4.880;2022-09-13T13:09:35;30.20;91.00
17092;DHT22;8661;45.700;4.880;2022-09-13T13:12:08;30.00;91.50
17092;DHT22;8661;45.700;4.880;2022-09-13T13:14:47;30.00;91.90
17092;DHT22;8661;45.700;4.880;2022-09-13T13:17:40;30.10;91.90
17092;DHT22;8661;45.700;4.880;2022-09-13T13:20:39;29.90;92.10
17092;DHT22;8661;45.700;4.880;2022-09-13T13:23:20;29.80;92.50
17092;DHT22;8661;45.700;4.880;2022-09-13T13:26:03;29.80;92.50
17092;DHT22;8661;45.700;4.880;2022-09-13T13:32:04;29.90;92.30
17092;DHT22;8661;45.700;4.880;2022-09-13T13:34:44;29.80;92.40
17092;DHT22;8661;45.700;4.880;2022-09-13T13:37:38;29.90;93.00
17092;DHT22;8661;45.700;4.880;2022-09-13T13:40:27;30.10;92.40
17092;DHT22;8661;45.700;4.880;2022-09-13T13:43:14;30.10;92.50
17092;DHT22;8661;45.700;4.880;2022-09-13T13:45:57;30.20;92.30
17092;DHT22;8661;45.700;4.880;2022-09-13T13:48:36;30.60;91.80
17092;DHT22;8661;45.700;4.880;2022-09-13T13:51:24;30.40;91.60
17092;DHT22;8661;45.700;4.880;2022-09-13T13:53:56;30.20;92.20
17092;DHT22;8661;45.700;4.880;2022-09-13T13:59:13;29.90;92.30
17092;DHT22;8661;45.700;4.880;2022-09-13T14:01:47;29.50;92.80
17092;DHT22;8661;45.700;4.880;2022-09-13T14:04:48;29.30;93.20
17092;DHT22;8661;45.700;4.880;2022-09-13T14:07:55;29.20;93.80
17092;DHT22;8661;45.700;4.880;2022-09-13T14:10:40;29.40;93.50
17092;DHT22;8661;45.700;4.880;2022-09-13T14:13:28;29.60;93.30
17092;DHT22;8661;45.700;4.880;2022-09-13T14:16:04;29.50;93.20
17092;DHT22;8661;45.700;4.880;2022-09-13T14:19:02;29.60;93.20
17092;DHT22;8661;45.700;4.880;2022-09-13T14:21:32;29.50;93.10
17092;DHT22;8661;45.700;4.880;2022-09-13T14:24:18;29.30;93.50
17092;DHT22;8661;45.700;4.880;2022-09-13T14:26:48;29.30;94.00
17092;DHT22;8661;45.700;4.880;2022-09-13T14:29:21;29.10;93.90
17092;DHT22;8661;45.700;4.880;2022-09-13T14:31:54;28.90;94.40
17092;DHT22;8661;45.700;4.880;2022-09-13T14:34:27;28.80;94.70
17092;DHT22;8661;45.700;4.880;2022-09-13T14:36:56;28.60;95.00
17092;DHT22;8661;45.700;4.880;2022-09-13T14:39:23;28.50;95.30
17092;DHT22;8661;45.700;4.880;2022-09-13T14:41:58;28.50;95.50
17092;DHT22;8661;45.700;4.880;2022-09-13T14:44:26;28.40;95.80
17092;DHT22;8661;45.700;4.880;2022-09-13T14:47:00;28.40;96.00
17092;DHT22;8661;45.700;4.880;2022-09-13T14:49:33;28.40;96.10
17092;DHT22;8661;45.700;4.880;2022-09-13T14:52:02;28.40;96.30
17092;DHT22;8661;45.700;4.880;2022-09-13T14:54:36;28.50;96.20
17092;DHT22;8661;45.700;4.880;2022-09-13T14:57:06;28.50;96.20
17092;DHT22;8661;45.700;4.880;2022-09-13T14:59:39;28.40;96.40
17092;DHT22;8661;45.700;4.880;2022-09-13T15:02:16;28.30;96.50
17092;DHT22;8661;45.700;4.880;2022-09-13T15:04:49;28.10;96.80
17092;DHT22;8661;45.700;4.880;2022-09-13T15:07:21;28.10;97.10
17092;DHT22;8661;45.700;4.880;2022-09-13T15:09:55;28.00;97.30
17092;DHT22;8661;45.700;4.880;2022-09-13T15:12:26;27.90;97.60
17092;DHT22;8661;45.700;4.880;2022-09-13T15:18:20;27.90;97.90
17092;DHT22;8661;45.700;4.880;2022-09-13T15:20:52;27.80;98.20
17092;DHT22;8661;45.700;4.880;2022-09-13T15:23:23;27.80;98.00
17092;DHT22;8661;45.700;4.880;2022-09-13T15:25:54;27.70;98.20
17092;DHT22;8661;45.700;4.880;2022-09-13T15:28:26;27.60;98.30
17092;DHT22;8661;45.700;4.880;2022-09-13T15:30:55;27.60;98.60
17092;DHT22;8661;45.700;4.880;2022-09-13T15:33:25;27.50;98.90
17092;DHT22;8661;45.700;4.880;2022-09-13T15:36:24;27.40;99.10
17092;DHT22;8661;45.700;4.880;2022-09-13T15:38:58;27.30;99.60
17092;DHT22;8661;45.700;4.880;2022-09-13T15:41:33;27.20;99.90
17092;DHT22;8661;45.700;4.880;2022-09-13T15:44:03;27.20;99.90
17092;DHT22;8661;45.700;4.880;2022-09-13T15:46:31;27.10;99.90
17092;DHT22;8661;45.700;4.880;2022-09-13T15:49:00;27.00;99.90
17092;DHT22;8661;45.700;4.880;2022-09-13T15:51:56;27.00;99.90
17092;DHT22;8661;45.700;4.880;2022-09-13T15:54:39;26.90;99.90
17092;DHT22;8661;45.700;4.880;2022-09-13T15:57:08;26.80;99.90
17092;DHT22;8661;45.700;4.880;2022-09-13T15:59:40;26.70;99.90
17092;DHT22;8661;45.700;4.880;2022-09-13T16:02:22;26.70;99.90
17092;DHT22;8661;45.700;4.880;2022-09-13T16:04:50;26.60;99.90
17092;DHT22;8661;45.700;4.880;2022-09-13T16:07:23;26.60;99.90
17092;DHT22;8661;45.700;4.880;2022-09-13T16:09:51;26.60;99.90
17092;DHT22;8661;45.700;4.880;2022-09-13T16:12:19;26.60;99.90
17092;DHT22;8661;45.700;4.880;2022-09-13T16:14:51;26.60;99.90
17092;DHT22;8661;45.700;4.880;2022-09-13T16:17:21;26.60;99.90
17092;DHT22;8661;45.700;4.880;2022-09-13T16:19:49;26.60;99.90
17092;DHT22;8661;45.700;4.880;2022-09-13T16:22:16;26.60;99.90
17092;DHT22;8661;45.700;4.880;2022-09-13T16:24:45;26.60;99.90
17092;DHT22;8661;45.700;4.880;2022-09-13T16:27:15;26.60;99.90
17092;DHT22;8661;45.700;4.880;2022-09-13T16:29:44;26.60;99.90
17092;DHT22;8661;45.700;4.880;2022-09-13T16:32:11;26.70;99.90
17092;DHT22;8661;45.700;4.880;2022-09-13T16:34:38;26.70;99.90
17092;DHT22;8661;45.700;4.880;2022-09-13T16:37:05;26.70;99.90
17092;DHT22;8661;45.700;4.880;2022-09-13T16:39:33;26.70;99.90
17092;DHT22;8661;45.700;4.880;2022-09-13T16:42:01;26.70;99.90
17092;DHT22;8661;45.700;4.880;2022-09-13T16:44:29;26.70;99.90
17092;DHT22;8661;45.700;4.880;2022-09-13T16:46:56;26.60;99.90